sensor_id;sensor_type;location;lat;lon;timestamp;P1;durP1;ratioP1;P2;durP2;ratioP2
36797;SDS011;22748;8.426;99.512;2023-03-13T00:00:22;56.10;;;42.63;;
36797;SDS011;22748;8.426;99.512;2023-03-13T00:02:56;49.40;;;39.45;;
36797;SDS011;22748;8.426;99.512;2023-03-13T00:05:36;52.13;;;39.58;;
36797;SDS011;22748;8.426;99.512;2023-03-13T00:08:06;44.75;;;37.25;;
36797;SDS011;22748;8.426;99.512;2023-03-13T00:10:36;47.53;;;37.60;;
36797;SDS011;22748;8.426;99.512;2023-03-13T00:13:07;44.22;;;35.90;;
36797;SDS011;22748;8.426;99.512;2023-03-13T00:15:37;46.40;;;40.17;;
36797;SDS011;22748;8.426;99.512;2023-03-13T00:18:08;63.05;;;41.78;;
36797;SDS011;22748;8.426;99.512;2023-03-13T00:20:40;109.95;;;43.85;;
36797;SDS011;22748;8.426;99.512;2023-03-13T00:23:14;69.88;;;46.92;;
36797;SDS011;22748;8.426;99.512;2023-03-13T00:25:55;94.45;;;80.32;;
36797;SDS011;22748;8.426;99.512;2023-03-13T00:28:27;65.20;;;51.95;;
36797;SDS011;22748;8.426;99.512;2023-03-13T00:31:05;59.67;;;44.40;;
36797;SDS011;22748;8.426;99.512;2023-03-13T00:33:37;84.95;;;61.78;;
36797;SDS011;22748;8.426;99.512;2023-03-13T00:36:16;56.05;;;42.90;;
36797;SDS011;22748;8.426;99.512;2023-03-13T00:38:52;51.45;;;41.17;;
36797;SDS011;22748;8.426;99.512;2023-03-13T00:41:24;51.85;;;41.60;;
36797;SDS011;22748;8.426;99.512;2023-03-13T00:43:57;53.53;;;41.88;;
36797;SDS011;22748;8.426;99.512;2023-03-13T00:46:28;59.90;;;48.10;;
36797;SDS011;22748;8.426;99.512;2023-03-13T00:48:59;52.22;;;42.20;;
36797;SDS011;22748;8.426;99.512;2023-03-13T00:51:40;50.60;;;40.95;;
36797;SDS011;22748;8.426;99.512;2023-03-13T00:54:11;53.13;;;44.00;;
36797;SDS011;22748;8.426;99.512;2023-03-13T00:56:48;50.80;;;42.78;;
36797;SDS011;22748;8.426;99.512;2023-03-13T00:59:19;50.80;;;42.97;;
36797;SDS011;22748;8.426;99.512;2023-03-13T01:01:56;52.28;;;40.58;;
36797;SDS011;22748;8.426;99.512;2023-03-13T01:04:26;49.63;;;41.20;;
36797;SDS011;22748;8.426;99.512;2023-03-13T01:07:04;48.15;;;40.75;;
36797;SDS011;22748;8.426;99.512;2023-03-13T01:09:34;55.58;;;43.15;;
36797;SDS011;22748;8.426;99.512;2023-03-13T01:12:06;59.40;;;44.53;;
36797;SDS011;22748;8.426;99.512;2023-03-13T01:14:48;58.00;;;43.30;;
36797;SDS011;22748;8.426;99.512;2023-03-13T01:17:20;54.42;;;43.75;;
36797;SDS011;22748;8.426;99.512;2023-03-13T01:19:56;54.05;;;42.20;;
36797;SDS011;22748;8.426;99.512;2023-03-13T01:22:28;54.03;;;44.63;;
36797;SDS011;22748;8.426;99.512;2023-03-13T01:24:59;53.63;;;42.40;;
36797;SDS011;22748;8.426;99.512;2023-03-13T01:27:30;54.53;;;44.15;;
36797;SDS011;22748;8.426;99.512;2023-03-13T01:30:01;61.33;;;45.83;;
36797;SDS011;22748;8.426;99.512;2023-03-13T01:32:33;56.15;;;43.63;;
36797;SDS011;22748;8.426;99.512;2023-03-13T01:35:05;54.17;;;43.15;;
36797;SDS011;22748;8.426;99.512;2023-03-13T01:37:40;56.42;;;45.28;;
36797;SDS011;22748;8.426;99.512;2023-03-13T01:40:17;65.18;;;45.80;;
36797;SDS011;22748;8.426;99.512;2023-03-13T01:42:52;58.28;;;44.38;;
36797;SDS011;22748;8.426;99.512;2023-03-13T01:48:29;53.00;;;43.15;;
36797;SDS011;22748;8.426;99.512;2023-03-13T01:51:06;53.97;;;44.28;;
36797;SDS011;22748;8.426;99.512;2023-03-13T01:53:41;52.97;;;43.50;;
36797;SDS011;22748;8.426;99.512;2023-03-13T01:56:17;56.22;;;44.97;;
36797;SDS011;22748;8.426;99.512;2023-03-13T01:58:54;58.00;;;43.17;;
36797;SDS011;22748;8.426;99.512;2023-03-13T02:01:27;53.72;;;43.33;;
36797;SDS011;22748;8.426;99.512;2023-03-13T02:03:59;56.38;;;45.20;;
36797;SDS011;22748;8.426;99.512;2023-03-13T02:09:04;53.30;;;41.53;;
36797;SDS011;22748;8.426;99.512;2023-03-13T02:11:44;58.50;;;44.25;;
36797;SDS011;22748;8.426;99.512;2023-03-13T02:14:19;53.78;;;42.92;;
36797;SDS011;22748;8.426;99.512;2023-03-13T02:16:53;50.65;;;41.75;;
36797;SDS011;22748;8.426;99.512;2023-03-13T02:19:27;54.65;;;41.75;;
36797;SDS011;22748;8.426;99.512;2023-03-13T02:22:06;49.90;;;42.00;;
36797;SDS011;22748;8.426;99.512;2023-03-13T02:24:46;48.95;;;39.47;;
36797;SDS011;22748;8.426;99.512;2023-03-13T02:27:25;57.38;;;39.35;;
36797;SDS011;22748;8.426;99.512;2023-03-13T02:29:56;47.60;;;37.50;;
36797;SDS011;22748;8.426;99.512;2023-03-13T02:32:31;44.35;;;36.42;;
36797;SDS011;22748;8.426;99.512;2023-03-13T02:35:03;44.65;;;34.20;;
36797;SDS011;22748;8.426;99.512;2023-03-13T02:37:36;40.42;;;30.40;;
36797;SDS011;22748;8.426;99.512;2023-03-13T02:40:07;44.63;;;32.27;;
36797;SDS011;22748;8.426;99.512;2023-03-13T02:42:44;37.40;;;31.02;;
36797;SDS011;22748;8.426;99.512;2023-03-13T02:45:17;36.95;;;29.35;;
36797;SDS011;22748;8.426;99.512;2023-03-13T02:50:16;37.60;;;28.40;;
36797;SDS011;22748;8.426;99.512;2023-03-13T02:52:51;40.40;;;27.38;;
36797;SDS011;22748;8.426;99.512;2023-03-13T02:55:28;37.42;;;27.92;;
36797;SDS011;22748;8.426;99.512;2023-03-13T02:58:05;37.53;;;28.45;;
36797;SDS011;22748;8.426;99.512;2023-03-13T03:00:36;36.97;;;28.77;;
36797;SDS011;22748;8.426;99.512;2023-03-13T03:03:07;39.70;;;29.67;;
36797;SDS011;22748;8.426;99.512;2023-03-13T03:05:38;44.92;;;29.45;;
36797;SDS011;22748;8.426;99.512;2023-03-13T03:08:09;35.30;;;27.88;;
36797;SDS011;22748;8.426;99.512;2023-03-13T03:10:40;35.17;;;26.80;;
36797;SDS011;22748;8.426;99.512;2023-03-13T03:13:15;35.55;;;27.45;;
36797;SDS011;22748;8.426;99.512;2023-03-13T03:15:46;34.22;;;26.75;;
36797;SDS011;22748;8.426;99.512;2023-03-13T03:18:19;35.85;;;27.95;;
36797;SDS011;22748;8.426;99.512;2023-03-13T03:20:50;36.33;;;26.63;;
36797;SDS011;22748;8.426;99.512;2023-03-13T03:23:21;34.33;;;26.65;;
36797;SDS011;22748;8.426;99.512;2023-03-13T03:25:52;35.78;;;27.25;;
36797;SDS011;22748;8.426;99.512;2023-03-13T03:28:25;37.92;;;27.65;;
36797;SDS011;22748;8.426;99.512;2023-03-13T03:31:01;37.70;;;28.63;;
36797;SDS011;22748;8.426;99.512;2023-03-13T03:33:33;41.40;;;29.20;;
36797;SDS011;22748;8.426;99.512;2023-03-13T03:36:05;40.50;;;27.67;;
36797;SDS011;22748;8.426;99.512;2023-03-13T03:38:37;38.63;;;27.02;;
36797;SDS011;22748;8.426;99.512;2023-03-13T03:41:10;37.10;;;28.45;;
36797;SDS011;22748;8.426;99.512;2023-03-13T03:43:44;43.67;;;28.13;;
36797;SDS011;22748;8.426;99.512;2023-03-13T03:46:15;35.63;;;26.33;;
36797;SDS011;22748;8.426;99.512;2023-03-13T03:51:15;36.72;;;26.80;;
36797;SDS011;22748;8.426;99.512;2023-03-13T03:53:46;36.60;;;26.50;;
36797;SDS011;22748;8.426;99.512;2023-03-13T03:56:18;36.50;;;24.08;;
36797;SDS011;22748;8.426;99.512;2023-03-13T03:58:51;35.38;;;25.63;;
36797;SDS011;22748;8.426;99.512;2023-03-13T04:01:21;39.65;;;26.77;;
36797;SDS011;22748;8.426;99.512;2023-03-13T04:03:52;41.70;;;27.13;;
36797;SDS011;22748;8.426;99.512;2023-03-13T04:06:22;37.30;;;26.45;;
36797;SDS011;22748;8.426;99.512;2023-03-13T04:08:54;39.47;;;26.35;;
36797;SDS011;22748;8.426;99.512;2023-03-13T04:11:25;38.30;;;26.67;;
36797;SDS011;22748;8.426;99.512;2023-03-13T04:13:58;35.40;;;27.58;;
36797;SDS011;22748;8.426;99.512;2023-03-13T04:16:28;37.67;;;27.75;;
36797;SDS011;22748;8.426;99.512;2023-03-13T04:21:28;34.25;;;27.42;;
36797;SDS011;22748;8.426;99.512;2023-03-13T04:23:59;34.47;;;26.45;;
36797;SDS011;22748;8.426;99.512;2023-03-13T04:26:30;39.03;;;27.25;;
36797;SDS011;22748;8.426;99.512;2023-03-13T04:29:13;34.90;;;26.05;;
36797;SDS011;22748;8.426;99.512;2023-03-13T04:31:46;36.33;;;26.30;;
36797;SDS011;22748;8.426;99.512;2023-03-13T04:34:16;34.40;;;26.20;;
36797;SDS011;22748;8.426;99.512;2023-03-13T04:36:46;32.75;;;25.85;;
36797;SDS011;22748;8.426;99.512;2023-03-13T04:39:16;32.05;;;26.17;;
36797;SDS011;22748;8.426;99.512;2023-03-13T04:41:51;33.08;;;26.20;;
36797;SDS011;22748;8.426;99.512;2023-03-13T04:44:25;36.20;;;25.38;;
36797;SDS011;22748;8.426;99.512;2023-03-13T04:46:57;34.15;;;26.20;;
36797;SDS011;22748;8.426;99.512;2023-03-13T04:51:56;35.55;;;26.55;;
36797;SDS011;22748;8.426;99.512;2023-03-13T04:54:31;35.88;;;26.73;;
36797;SDS011;22748;8.426;99.512;2023-03-13T04:57:03;36.17;;;26.15;;
36797;SDS011;22748;8.426;99.512;2023-03-13T05:02:05;44.03;;;33.13;;
36797;SDS011;22748;8.426;99.512;2023-03-13T05:04:37;36.75;;;27.95;;
36797;SDS011;22748;8.426;99.512;2023-03-13T05:07:10;35.28;;;26.45;;
36797;SDS011;22748;8.426;99.512;2023-03-13T05:09:42;32.03;;;24.48;;
36797;SDS011;22748;8.426;99.512;2023-03-13T05:12:12;33.28;;;24.77;;
36797;SDS011;22748;8.426;99.512;2023-03-13T05:14:44;30.27;;;23.60;;
36797;SDS011;22748;8.426;99.512;2023-03-13T05:17:16;29.88;;;23.80;;
36797;SDS011;22748;8.426;99.512;2023-03-13T05:19:47;29.25;;;23.23;;
36797;SDS011;22748;8.426;99.512;2023-03-13T05:22:18;26.98;;;23.02;;
36797;SDS011;22748;8.426;99.512;2023-03-13T05:24:50;34.50;;;23.40;;
36797;SDS011;22748;8.426;99.512;2023-03-13T05:29:56;32.67;;;21.55;;
36797;SDS011;22748;8.426;99.512;2023-03-13T05:32:27;26.73;;;21.50;;
36797;SDS011;22748;8.426;99.512;2023-03-13T05:34:59;27.52;;;21.77;;
36797;SDS011;22748;8.426;99.512;2023-03-13T05:37:29;26.35;;;20.90;;
36797;SDS011;22748;8.426;99.512;2023-03-13T05:40:00;31.40;;;22.25;;
36797;SDS011;22748;8.426;99.512;2023-03-13T05:42:32;26.83;;;21.52;;
36797;SDS011;22748;8.426;99.512;2023-03-13T05:45:06;28.58;;;20.55;;
36797;SDS011;22748;8.426;99.512;2023-03-13T05:47:40;24.92;;;18.80;;
36797;SDS011;22748;8.426;99.512;2023-03-13T05:50:11;28.67;;;19.67;;
36797;SDS011;22748;8.426;99.512;2023-03-13T05:55:10;25.58;;;17.95;;
36797;SDS011;22748;8.426;99.512;2023-03-13T05:57:43;27.33;;;17.77;;
36797;SDS011;22748;8.426;99.512;2023-03-13T06:00:16;24.45;;;17.88;;
36797;SDS011;22748;8.426;99.512;2023-03-13T06:02:47;23.15;;;17.55;;
36797;SDS011;22748;8.426;99.512;2023-03-13T06:05:17;22.35;;;17.02;;
36797;SDS011;22748;8.426;99.512;2023-03-13T06:07:48;24.77;;;16.60;;
36797;SDS011;22748;8.426;99.512;2023-03-13T06:12:53;20.65;;;16.60;;
36797;SDS011;22748;8.426;99.512;2023-03-13T06:15:25;25.50;;;17.05;;
36797;SDS011;22748;8.426;99.512;2023-03-13T06:17:59;20.42;;;15.80;;
36797;SDS011;22748;8.426;99.512;2023-03-13T06:23:00;23.15;;;16.17;;
36797;SDS011;22748;8.426;99.512;2023-03-13T06:28:01;22.92;;;16.08;;
36797;SDS011;22748;8.426;99.512;2023-03-13T06:30:38;21.45;;;16.90;;
36797;SDS011;22748;8.426;99.512;2023-03-13T06:33:09;27.08;;;17.23;;
36797;SDS011;22748;8.426;99.512;2023-03-13T06:38:09;20.13;;;16.02;;
36797;SDS011;22748;8.426;99.512;2023-03-13T06:40:39;21.57;;;17.00;;
36797;SDS011;22748;8.426;99.512;2023-03-13T06:43:11;25.05;;;16.42;;
36797;SDS011;22748;8.426;99.512;2023-03-13T06:45:44;21.73;;;15.93;;
36797;SDS011;22748;8.426;99.512;2023-03-13T06:48:15;21.88;;;16.27;;
36797;SDS011;22748;8.426;99.512;2023-03-13T06:50:46;22.02;;;17.15;;
36797;SDS011;22748;8.426;99.512;2023-03-13T06:53:16;25.35;;;16.20;;
36797;SDS011;22748;8.426;99.512;2023-03-13T06:55:48;24.35;;;16.85;;
36797;SDS011;22748;8.426;99.512;2023-03-13T06:58:21;22.27;;;16.58;;
36797;SDS011;22748;8.426;99.512;2023-03-13T07:00:53;21.20;;;16.70;;
36797;SDS011;22748;8.426;99.512;2023-03-13T07:03:24;24.95;;;17.42;;
36797;SDS011;22748;8.426;99.512;2023-03-13T07:05:57;26.27;;;17.08;;
36797;SDS011;22748;8.426;99.512;2023-03-13T07:08:29;26.65;;;17.35;;
36797;SDS011;22748;8.426;99.512;2023-03-13T07:11:01;24.63;;;16.13;;
36797;SDS011;22748;8.426;99.512;2023-03-13T07:13:32;25.80;;;16.88;;
36797;SDS011;22748;8.426;99.512;2023-03-13T07:16:07;25.02;;;16.65;;
36797;SDS011;22748;8.426;99.512;2023-03-13T07:18:40;21.15;;;16.95;;
36797;SDS011;22748;8.426;99.512;2023-03-13T07:21:10;21.35;;;16.88;;
36797;SDS011;22748;8.426;99.512;2023-03-13T07:23:41;22.08;;;17.20;;
36797;SDS011;22748;8.426;99.512;2023-03-13T07:26:19;22.67;;;17.55;;
36797;SDS011;22748;8.426;99.512;2023-03-13T07:28:49;23.63;;;16.92;;
36797;SDS011;22748;8.426;99.512;2023-03-13T07:31:21;25.98;;;17.20;;
36797;SDS011;22748;8.426;99.512;2023-03-13T07:33:54;22.65;;;16.60;;
36797;SDS011;22748;8.426;99.512;2023-03-13T07:36:25;24.75;;;17.88;;
36797;SDS011;22748;8.426;99.512;2023-03-13T07:38:56;23.40;;;17.17;;
36797;SDS011;22748;8.426;99.512;2023-03-13T07:41:29;21.15;;;16.80;;
36797;SDS011;22748;8.426;99.512;2023-03-13T07:44:03;26.23;;;17.88;;
36797;SDS011;22748;8.426;99.512;2023-03-13T07:46:38;21.45;;;17.52;;
36797;SDS011;22748;8.426;99.512;2023-03-13T07:49:11;27.25;;;17.95;;
36797;SDS011;22748;8.426;99.512;2023-03-13T07:51:43;23.98;;;17.98;;
36797;SDS011;22748;8.426;99.512;2023-03-13T07:54:30;25.15;;;17.65;;
36797;SDS011;22748;8.426;99.512;2023-03-13T07:57:00;24.67;;;19.15;;
36797;SDS011;22748;8.426;99.512;2023-03-13T07:59:31;24.52;;;18.95;;
36797;SDS011;22748;8.426;99.512;2023-03-13T08:02:03;23.30;;;18.45;;
36797;SDS011;22748;8.426;99.512;2023-03-13T08:04:34;25.20;;;17.70;;
36797;SDS011;22748;8.426;99.512;2023-03-13T08:07:07;26.58;;;17.40;;
36797;SDS011;22748;8.426;99.512;2023-03-13T08:09:38;23.05;;;16.90;;
36797;SDS011;22748;8.426;99.512;2023-03-13T08:12:11;24.88;;;16.70;;
36797;SDS011;22748;8.426;99.512;2023-03-13T08:14:41;23.42;;;16.40;;
36797;SDS011;22748;8.426;99.512;2023-03-13T08:17:14;23.33;;;16.60;;
36797;SDS011;22748;8.426;99.512;2023-03-13T08:19:44;21.60;;;15.43;;
36797;SDS011;22748;8.426;99.512;2023-03-13T08:22:16;22.58;;;15.95;;
36797;SDS011;22748;8.426;99.512;2023-03-13T08:24:47;25.30;;;16.00;;
36797;SDS011;22748;8.426;99.512;2023-03-13T08:27:17;23.03;;;15.27;;
36797;SDS011;22748;8.426;99.512;2023-03-13T08:29:47;19.55;;;15.05;;
36797;SDS011;22748;8.426;99.512;2023-03-13T08:32:22;26.48;;;17.70;;
36797;SDS011;22748;8.426;99.512;2023-03-13T08:34:54;22.70;;;16.50;;
36797;SDS011;22748;8.426;99.512;2023-03-13T08:39:54;26.80;;;14.52;;
36797;SDS011;22748;8.426;99.512;2023-03-13T08:42:25;21.77;;;14.73;;
36797;SDS011;22748;8.426;99.512;2023-03-13T08:44:56;18.70;;;14.38;;
36797;SDS011;22748;8.426;99.512;2023-03-13T08:47:29;21.20;;;14.20;;
36797;SDS011;22748;8.426;99.512;2023-03-13T08:50:00;21.38;;;15.00;;
36797;SDS011;22748;8.426;99.512;2023-03-13T08:52:32;25.13;;;15.70;;
36797;SDS011;22748;8.426;99.512;2023-03-13T08:55:05;20.55;;;15.05;;
36797;SDS011;22748;8.426;99.512;2023-03-13T08:57:40;19.27;;;14.13;;
36797;SDS011;22748;8.426;99.512;2023-03-13T09:00:11;17.92;;;14.02;;
36797;SDS011;22748;8.426;99.512;2023-03-13T09:02:45;19.55;;;14.10;;
36797;SDS011;22748;8.426;99.512;2023-03-13T09:05:16;23.05;;;14.90;;
36797;SDS011;22748;8.426;99.512;2023-03-13T09:07:47;23.63;;;15.38;;
36797;SDS011;22748;8.426;99.512;2023-03-13T09:10:18;20.42;;;14.50;;
36797;SDS011;22748;8.426;99.512;2023-03-13T09:12:58;19.27;;;14.02;;
36797;SDS011;22748;8.426;99.512;2023-03-13T09:15:29;25.10;;;14.20;;
36797;SDS011;22748;8.426;99.512;2023-03-13T09:18:01;23.40;;;15.57;;
36797;SDS011;22748;8.426;99.512;2023-03-13T09:20:33;24.13;;;15.68;;
36797;SDS011;22748;8.426;99.512;2023-03-13T09:23:04;23.63;;;14.70;;
36797;SDS011;22748;8.426;99.512;2023-03-13T09:28:07;21.50;;;14.20;;
36797;SDS011;22748;8.426;99.512;2023-03-13T09:30:38;17.63;;;14.20;;
36797;SDS011;22748;8.426;99.512;2023-03-13T09:35:41;23.10;;;14.63;;
36797;SDS011;22748;8.426;99.512;2023-03-13T09:38:15;21.15;;;13.80;;
36797;SDS011;22748;8.426;99.512;2023-03-13T09:40:47;21.25;;;14.63;;
36797;SDS011;22748;8.426;99.512;2023-03-13T09:43:20;21.38;;;14.35;;
36797;SDS011;22748;8.426;99.512;2023-03-13T09:46:03;20.02;;;13.77;;
36797;SDS011;22748;8.426;99.512;2023-03-13T09:48:42;21.20;;;13.32;;
36797;SDS011;22748;8.426;99.512;2023-03-13T09:51:17;20.98;;;13.18;;
36797;SDS011;22748;8.426;99.512;2023-03-13T09:53:53;20.17;;;13.82;;
36797;SDS011;22748;8.426;99.512;2023-03-13T09:56:29;21.42;;;14.25;;
36797;SDS011;22748;8.426;99.512;2023-03-13T09:59:09;20.23;;;15.25;;
36797;SDS011;22748;8.426;99.512;2023-03-13T10:01:45;21.27;;;14.45;;
36797;SDS011;22748;8.426;99.512;2023-03-13T10:04:27;21.35;;;13.30;;
36797;SDS011;22748;8.426;99.512;2023-03-13T10:07:00;17.02;;;12.88;;
36797;SDS011;22748;8.426;99.512;2023-03-13T10:09:32;20.63;;;13.02;;
36797;SDS011;22748;8.426;99.512;2023-03-13T10:12:04;22.90;;;14.30;;
36797;SDS011;22748;8.426;99.512;2023-03-13T10:14:41;23.40;;;13.45;;
36797;SDS011;22748;8.426;99.512;2023-03-13T10:17:25;25.27;;;14.20;;
36797;SDS011;22748;8.426;99.512;2023-03-13T10:20:13;25.40;;;15.68;;
36797;SDS011;22748;8.426;99.512;2023-03-13T10:22:50;23.88;;;16.80;;
36797;SDS011;22748;8.426;99.512;2023-03-13T10:25:28;22.58;;;16.52;;
36797;SDS011;22748;8.426;99.512;2023-03-13T10:28:01;25.38;;;14.25;;
36797;SDS011;22748;8.426;99.512;2023-03-13T10:30:38;21.45;;;14.07;;
36797;SDS011;22748;8.426;99.512;2023-03-13T10:33:23;23.45;;;13.25;;
36797;SDS011;22748;8.426;99.512;2023-03-13T10:36:12;21.77;;;13.88;;
36797;SDS011;22748;8.426;99.512;2023-03-13T10:38:46;17.25;;;12.55;;
36797;SDS011;22748;8.426;99.512;2023-03-13T10:41:28;22.27;;;12.70;;
36797;SDS011;22748;8.426;99.512;2023-03-13T10:44:03;19.23;;;12.38;;
36797;SDS011;22748;8.426;99.512;2023-03-13T10:46:38;21.75;;;12.55;;
36797;SDS011;22748;8.426;99.512;2023-03-13T10:49:14;20.60;;;13.27;;
36797;SDS011;22748;8.426;99.512;2023-03-13T10:51:47;24.63;;;13.55;;
36797;SDS011;22748;8.426;99.512;2023-03-13T10:54:21;20.02;;;12.60;;
36797;SDS011;22748;8.426;99.512;2023-03-13T10:57:20;20.48;;;12.18;;
36797;SDS011;22748;8.426;99.512;2023-03-13T10:59:57;19.27;;;12.40;;
36797;SDS011;22748;8.426;99.512;2023-03-13T11:02:34;21.85;;;12.68;;
36797;SDS011;22748;8.426;99.512;2023-03-13T11:05:28;20.52;;;13.15;;
36797;SDS011;22748;8.426;99.512;2023-03-13T11:08:18;19.88;;;12.07;;
36797;SDS011;22748;8.426;99.512;2023-03-13T11:10:54;23.35;;;12.90;;
36797;SDS011;22748;8.426;99.512;2023-03-13T11:13:27;20.60;;;12.32;;
36797;SDS011;22748;8.426;99.512;2023-03-13T11:16:02;23.85;;;13.68;;
36797;SDS011;22748;8.426;99.512;2023-03-13T11:19:11;19.63;;;12.50;;
36797;SDS011;22748;8.426;99.512;2023-03-13T11:22:08;19.05;;;12.32;;
36797;SDS011;22748;8.426;99.512;2023-03-13T11:24:51;21.65;;;12.93;;
36797;SDS011;22748;8.426;99.512;2023-03-13T11:27:32;19.15;;;11.40;;
36797;SDS011;22748;8.426;99.512;2023-03-13T11:30:15;20.85;;;10.75;;
36797;SDS011;22748;8.426;99.512;2023-03-13T11:32:52;21.92;;;11.25;;
36797;SDS011;22748;8.426;99.512;2023-03-13T11:35:31;19.42;;;11.82;;
36797;SDS011;22748;8.426;99.512;2023-03-13T11:38:07;19.98;;;11.63;;
36797;SDS011;22748;8.426;99.512;2023-03-13T11:40:53;18.42;;;10.60;;
36797;SDS011;22748;8.426;99.512;2023-03-13T11:43:37;16.08;;;11.32;;
36797;SDS011;22748;8.426;99.512;2023-03-13T11:46:17;16.90;;;10.80;;
36797;SDS011;22748;8.426;99.512;2023-03-13T11:51:52;23.48;;;11.85;;
36797;SDS011;22748;8.426;99.512;2023-03-13T11:54:48;23.10;;;12.38;;
36797;SDS011;22748;8.426;99.512;2023-03-13T11:57:29;19.25;;;11.43;;
36797;SDS011;22748;8.426;99.512;2023-03-13T12:00:20;23.77;;;11.00;;
36797;SDS011;22748;8.426;99.512;2023-03-13T12:02:58;18.35;;;11.48;;
36797;SDS011;22748;8.426;99.512;2023-03-13T12:05:37;20.92;;;11.20;;
36797;SDS011;22748;8.426;99.512;2023-03-13T12:08:17;20.67;;;11.32;;
36797;SDS011;22748;8.426;99.512;2023-03-13T12:11:12;21.02;;;11.73;;
36797;SDS011;22748;8.426;99.512;2023-03-13T12:13:48;21.25;;;11.40;;
36797;SDS011;22748;8.426;99.512;2023-03-13T12:16:29;20.00;;;12.40;;
36797;SDS011;22748;8.426;99.512;2023-03-13T12:19:09;27.05;;;14.82;;
36797;SDS011;22748;8.426;99.512;2023-03-13T12:21:45;43.17;;;23.83;;
36797;SDS011;22748;8.426;99.512;2023-03-13T12:24:34;42.40;;;22.80;;
36797;SDS011;22748;8.426;99.512;2023-03-13T12:27:10;33.83;;;17.10;;
36797;SDS011;22748;8.426;99.512;2023-03-13T12:29:50;26.92;;;16.35;;
36797;SDS011;22748;8.426;99.512;2023-03-13T12:32:28;24.67;;;13.90;;
36797;SDS011;22748;8.426;99.512;2023-03-13T12:35:07;21.88;;;12.30;;
36797;SDS011;22748;8.426;99.512;2023-03-13T12:37:49;26.48;;;13.45;;
36797;SDS011;22748;8.426;99.512;2023-03-13T12:40:26;24.05;;;12.70;;
36797;SDS011;22748;8.426;99.512;2023-03-13T12:43:02;20.10;;;12.68;;
36797;SDS011;22748;8.426;99.512;2023-03-13T12:45:48;20.83;;;12.02;;
36797;SDS011;22748;8.426;99.512;2023-03-13T12:48:37;22.63;;;10.88;;
36797;SDS011;22748;8.426;99.512;2023-03-13T12:57:23;19.00;;;9.65;;
36797;SDS011;22748;8.426;99.512;2023-03-13T13:00:15;20.25;;;10.05;;
36797;SDS011;22748;8.426;99.512;2023-03-13T13:03:03;18.27;;;10.10;;
36797;SDS011;22748;8.426;99.512;2023-03-13T13:05:57;20.25;;;10.10;;
36797;SDS011;22748;8.426;99.512;2023-03-13T13:08:31;16.63;;;10.10;;
36797;SDS011;22748;8.426;99.512;2023-03-13T13:17:14;16.88;;;9.55;;
36797;SDS011;22748;8.426;99.512;2023-03-13T13:19:49;15.18;;;9.10;;
36797;SDS011;22748;8.426;99.512;2023-03-13T13:27:56;15.57;;;10.10;;
36797;SDS011;22748;8.426;99.512;2023-03-13T13:30:52;19.80;;;9.70;;
36797;SDS011;22748;8.426;99.512;2023-03-13T13:36:28;14.63;;;9.50;;
36797;SDS011;22748;8.426;99.512;2023-03-13T13:39:21;16.45;;;9.82;;
36797;SDS011;22748;8.426;99.512;2023-03-13T13:45:22;18.70;;;10.23;;
36797;SDS011;22748;8.426;99.512;2023-03-13T13:53:56;18.83;;;10.02;;
36797;SDS011;22748;8.426;99.512;2023-03-13T13:56:28;16.77;;;9.60;;
36797;SDS011;22748;8.426;99.512;2023-03-13T14:05:05;20.98;;;10.05;;
36797;SDS011;22748;8.426;99.512;2023-03-13T14:07:45;17.83;;;9.93;;
36797;SDS011;22748;8.426;99.512;2023-03-13T14:13:12;20.08;;;10.10;;
36797;SDS011;22748;8.426;99.512;2023-03-13T14:15:46;16.75;;;9.90;;
36797;SDS011;22748;8.426;99.512;2023-03-13T14:18:21;20.38;;;11.85;;
36797;SDS011;22748;8.426;99.512;2023-03-13T14:20:57;17.67;;;11.30;;
36797;SDS011;22748;8.426;99.512;2023-03-13T14:23:33;20.35;;;13.70;;
36797;SDS011;22748;8.426;99.512;2023-03-13T14:26:11;26.38;;;15.80;;
36797;SDS011;22748;8.426;99.512;2023-03-13T14:28:47;29.30;;;17.05;;
36797;SDS011;22748;8.426;99.512;2023-03-13T14:31:23;30.55;;;17.60;;
36797;SDS011;22748;8.426;99.512;2023-03-13T14:33:56;28.05;;;16.35;;
36797;SDS011;22748;8.426;99.512;2023-03-13T14:36:27;29.65;;;17.75;;
36797;SDS011;22748;8.426;99.512;2023-03-13T14:39:01;28.70;;;16.40;;
36797;SDS011;22748;8.426;99.512;2023-03-13T14:41:35;25.10;;;15.65;;
36797;SDS011;22748;8.426;99.512;2023-03-13T14:44:12;25.60;;;14.88;;
36797;SDS011;22748;8.426;99.512;2023-03-13T14:46:49;27.88;;;16.73;;
36797;SDS011;22748;8.426;99.512;2023-03-13T14:49:24;34.40;;;19.65;;
36797;SDS011;22748;8.426;99.512;2023-03-13T14:52:02;25.65;;;15.98;;
36797;SDS011;22748;8.426;99.512;2023-03-13T14:54:53;30.77;;;16.27;;
36797;SDS011;22748;8.426;99.512;2023-03-13T14:57:27;23.58;;;14.07;;
36797;SDS011;22748;8.426;99.512;2023-03-13T15:03:20;39.42;;;20.92;;
36797;SDS011;22748;8.426;99.512;2023-03-13T15:08:44;30.13;;;16.77;;
36797;SDS011;22748;8.426;99.512;2023-03-13T15:11:21;25.45;;;15.63;;
36797;SDS011;22748;8.426;99.512;2023-03-13T15:13:56;24.20;;;15.20;;
36797;SDS011;22748;8.426;99.512;2023-03-13T15:16:27;26.65;;;15.23;;
36797;SDS011;22748;8.426;99.512;2023-03-13T15:18:59;23.33;;;14.25;;
36797;SDS011;22748;8.426;99.512;2023-03-13T15:21:30;22.95;;;13.30;;
36797;SDS011;22748;8.426;99.512;2023-03-13T15:24:09;22.08;;;13.18;;
36797;SDS011;22748;8.426;99.512;2023-03-13T15:26:45;37.33;;;23.27;;
36797;SDS011;22748;8.426;99.512;2023-03-13T15:29:16;34.88;;;23.50;;
36797;SDS011;22748;8.426;99.512;2023-03-13T15:31:50;29.13;;;20.33;;
36797;SDS011;22748;8.426;99.512;2023-03-13T15:36:50;32.22;;;21.73;;
36797;SDS011;22748;8.426;99.512;2023-03-13T15:39:21;35.43;;;21.40;;
36797;SDS011;22748;8.426;99.512;2023-03-13T15:41:54;24.92;;;17.70;;
36797;SDS011;22748;8.426;99.512;2023-03-13T15:44:25;29.23;;;18.88;;
36797;SDS011;22748;8.426;99.512;2023-03-13T15:46:56;35.08;;;22.08;;
36797;SDS011;22748;8.426;99.512;2023-03-13T15:51:57;28.45;;;17.50;;
36797;SDS011;22748;8.426;99.512;2023-03-13T15:54:28;29.92;;;16.50;;
36797;SDS011;22748;8.426;99.512;2023-03-13T15:57:03;23.83;;;14.50;;
36797;SDS011;22748;8.426;99.512;2023-03-13T15:59:35;20.77;;;14.38;;
36797;SDS011;22748;8.426;99.512;2023-03-13T16:02:09;22.08;;;13.98;;
36797;SDS011;22748;8.426;99.512;2023-03-13T16:04:44;24.95;;;14.82;;
36797;SDS011;22748;8.426;99.512;2023-03-13T16:07:15;24.35;;;14.60;;
36797;SDS011;22748;8.426;99.512;2023-03-13T16:09:48;22.35;;;14.30;;
36797;SDS011;22748;8.426;99.512;2023-03-13T16:12:31;20.38;;;13.68;;
36797;SDS011;22748;8.426;99.512;2023-03-13T16:15:03;19.85;;;13.00;;
36797;SDS011;22748;8.426;99.512;2023-03-13T16:17:35;21.58;;;13.45;;
36797;SDS011;22748;8.426;99.512;2023-03-13T16:20:11;19.10;;;13.50;;
36797;SDS011;22748;8.426;99.512;2023-03-13T16:22:43;19.90;;;13.60;;
36797;SDS011;22748;8.426;99.512;2023-03-13T16:25:14;20.42;;;14.27;;
36797;SDS011;22748;8.426;99.512;2023-03-13T16:27:46;20.40;;;13.93;;
36797;SDS011;22748;8.426;99.512;2023-03-13T16:30:20;19.10;;;13.40;;
36797;SDS011;22748;8.426;99.512;2023-03-13T16:32:52;19.45;;;13.52;;
36797;SDS011;22748;8.426;99.512;2023-03-13T16:37:54;19.08;;;13.50;;
36797;SDS011;22748;8.426;99.512;2023-03-13T16:40:27;17.90;;;13.15;;